N8767 KSJC-KTEB
Flight info
| Callsign | N8767 |
|---|---|
| Flight time | N/A |
| Altitude | 41000 |
| Route | LOUPE1 TIPRE Q126 INSLO DTA J84 EKR LBF OBH DSM IOW ZEGAL GIJ KEEHO JHW LVZ5 |
| Aircraft | B737/M-SDE2E3FGHIJ4P2RWXYZ/LB1D1 |
Departure
| Time | N/A |
|---|---|
| Airport | Norman Y. Mineta San Jose International Airport (KSJC) |
Arrival
| Time | 2026-05-04 22:46 |
|---|---|
| Airport | Teterboro Airport (KTEB) |
| Time | Latitude | Longitude | Altitude | Speed | Heading |
|---|---|---|---|---|---|
| 2026-05-04 21:54 | 41.99403 | -81.13375 | 40700 ft | 487 kts | 81° |
| 2026-05-04 21:54 | 42.00355 | -81.04360 | 40707 ft | 487 kts | 81° |
| 2026-05-04 21:55 | 42.01300 | -80.95331 | 40710 ft | 487 kts | 81° |
| 2026-05-04 21:55 | 42.02232 | -80.86362 | 40719 ft | 488 kts | 81° |
| 2026-05-04 21:56 | 42.03164 | -80.77325 | 40722 ft | 488 kts | 81° |
| 2026-05-04 21:56 | 42.04088 | -80.68285 | 40735 ft | 489 kts | 81° |
| 2026-05-04 21:57 | 42.05007 | -80.59223 | 40722 ft | 489 kts | 81° |
| 2026-05-04 21:57 | 42.05914 | -80.50212 | 40721 ft | 489 kts | 81° |
| 2026-05-04 21:58 | 42.06820 | -80.41133 | 40728 ft | 490 kts | 81° |
| 2026-05-04 21:58 | 42.07719 | -80.32049 | 40730 ft | 490 kts | 81° |
| 2026-05-04 21:59 | 42.08612 | -80.22958 | 40730 ft | 490 kts | 81° |
| 2026-05-04 21:59 | 42.09497 | -80.13863 | 40732 ft | 490 kts | 81° |
| 2026-05-04 22:00 | 42.10370 | -80.04826 | 40728 ft | 490 kts | 81° |
| 2026-05-04 22:00 | 42.11241 | -79.95722 | 40736 ft | 490 kts | 82° |
| 2026-05-04 22:01 | 42.12107 | -79.86605 | 40749 ft | 490 kts | 82° |
| 2026-05-04 22:01 | 42.12964 | -79.77492 | 40742 ft | 490 kts | 82° |
| 2026-05-04 22:02 | 42.13814 | -79.68381 | 40762 ft | 490 kts | 82° |
| 2026-05-04 22:02 | 42.14650 | -79.59339 | 40772 ft | 490 kts | 82° |
| 2026-05-04 22:03 | 42.15486 | -79.50226 | 40765 ft | 490 kts | 82° |
| 2026-05-04 22:03 | 42.16314 | -79.41112 | 40762 ft | 490 kts | 82° |
| 2026-05-04 22:04 | 42.17134 | -79.31999 | 40772 ft | 489 kts | 82° |
| 2026-05-04 22:04 | 42.17940 | -79.22974 | 40766 ft | 489 kts | 82° |
| 2026-05-04 22:05 | 42.18696 | -79.13853 | 40759 ft | 490 kts | 88° |
| 2026-05-04 22:05 | 42.18337 | -79.09302 | 40777 ft | 488 kts | 107° |
| 2026-05-04 22:05 | 42.17333 | -79.04939 | 40776 ft | 487 kts | 110° |
| 2026-05-04 22:06 | 42.15079 | -78.96324 | 40776 ft | 488 kts | 111° |
| 2026-05-04 22:06 | 42.12828 | -78.87753 | 40771 ft | 489 kts | 110° |
| 2026-05-04 22:07 | 42.10616 | -78.79085 | 40765 ft | 490 kts | 110° |
| 2026-05-04 22:07 | 42.08421 | -78.70386 | 40785 ft | 491 kts | 110° |
| 2026-05-04 22:08 | 42.06221 | -78.61687 | 40777 ft | 491 kts | 110° |
| 2026-05-04 22:08 | 42.04026 | -78.53051 | 40790 ft | 491 kts | 110° |
| 2026-05-04 22:09 | 42.01805 | -78.44355 | 40782 ft | 491 kts | 110° |
| 2026-05-04 22:09 | 41.99579 | -78.35670 | 40790 ft | 491 kts | 110° |
| 2026-05-04 22:10 | 41.97346 | -78.26990 | 40793 ft | 491 kts | 110° |
| 2026-05-04 22:10 | 41.95106 | -78.18316 | 40781 ft | 491 kts | 110° |
| 2026-05-04 22:11 | 41.92879 | -78.09720 | 40802 ft | 491 kts | 110° |
| 2026-05-04 22:11 | 41.90680 | -78.01259 | 40785 ft | 490 kts | 110° |
| 2026-05-04 22:12 | 41.88432 | -77.92640 | 40800 ft | 490 kts | 110° |
| 2026-05-04 22:12 | 41.86196 | -77.84099 | 40803 ft | 490 kts | 110° |
| 2026-05-04 22:13 | 41.83988 | -77.75699 | 40802 ft | 490 kts | 110° |
| 2026-05-04 22:13 | 41.81727 | -77.67115 | 40805 ft | 490 kts | 110° |
| 2026-05-04 22:14 | 41.79426 | -77.58402 | 40796 ft | 490 kts | 110° |
| 2026-05-04 22:14 | 41.77173 | -77.49913 | 40795 ft | 489 kts | 110° |
| 2026-05-04 22:15 | 41.74898 | -77.41373 | 40796 ft | 488 kts | 110° |
| 2026-05-04 22:15 | 41.72615 | -77.32826 | 40791 ft | 488 kts | 110° |
| 2026-05-04 22:16 | 41.70337 | -77.24325 | 40785 ft | 488 kts | 111° |
| 2026-05-04 22:16 | 41.68110 | -77.16041 | 40773 ft | 488 kts | 110° |
| 2026-05-04 22:17 | 41.65803 | -77.07501 | 40778 ft | 488 kts | 111° |
| 2026-05-04 22:17 | 41.63491 | -76.98974 | 40779 ft | 485 kts | 111° |
| 2026-05-04 22:17 | 41.62354 | -76.94787 | 40531 ft | 477 kts | 111° |
| 2026-05-04 22:18 | 41.61221 | -76.90624 | 39974 ft | 476 kts | 110° |
| 2026-05-04 22:18 | 41.60097 | -76.86499 | 39665 ft | 470 kts | 110° |
| 2026-05-04 22:18 | 41.58994 | -76.82457 | 38973 ft | 474 kts | 110° |
| 2026-05-04 22:18 | 41.57858 | -76.78306 | 38143 ft | 480 kts | 110° |
| 2026-05-04 22:19 | 41.56719 | -76.74146 | 37209 ft | 485 kts | 109° |
| 2026-05-04 22:19 | 41.55560 | -76.69920 | 36423 ft | 485 kts | 109° |
| 2026-05-04 22:19 | 41.54399 | -76.65697 | 35658 ft | 485 kts | 109° |
| 2026-05-04 22:19 | 41.53235 | -76.61467 | 34887 ft | 485 kts | 109° |
| 2026-05-04 22:20 | 41.52068 | -76.57235 | 34066 ft | 486 kts | 108° |
| 2026-05-04 22:20 | 41.50898 | -76.52996 | 33120 ft | 487 kts | 108° |
| 2026-05-04 22:20 | 41.49730 | -76.48774 | 32212 ft | 488 kts | 108° |
| 2026-05-04 22:20 | 41.48582 | -76.44630 | 31595 ft | 481 kts | 108° |
| 2026-05-04 22:21 | 41.47463 | -76.40602 | 30939 ft | 476 kts | 109° |
| 2026-05-04 22:21 | 41.46323 | -76.36502 | 30315 ft | 471 kts | 109° |
| 2026-05-04 22:21 | 41.45187 | -76.32424 | 29665 ft | 466 kts | 109° |
| 2026-05-04 22:21 | 41.44071 | -76.28420 | 28990 ft | 461 kts | 109° |
| 2026-05-04 22:22 | 41.42966 | -76.24464 | 28327 ft | 455 kts | 109° |
| 2026-05-04 22:22 | 41.41896 | -76.20642 | 27716 ft | 450 kts | 109° |
| 2026-05-04 22:22 | 41.40870 | -76.16978 | 27120 ft | 447 kts | 110° |
| 2026-05-04 22:22 | 41.39781 | -76.13096 | 26199 ft | 450 kts | 110° |
| 2026-05-04 22:23 | 41.38687 | -76.09201 | 25526 ft | 446 kts | 110° |
| 2026-05-04 22:23 | 41.37605 | -76.05355 | 24911 ft | 443 kts | 110° |
| 2026-05-04 22:23 | 41.36538 | -76.01571 | 24298 ft | 439 kts | 110° |
| 2026-05-04 22:23 | 41.35468 | -75.97779 | 23673 ft | 436 kts | 110° |
| 2026-05-04 22:24 | 41.34409 | -75.94035 | 23000 ft | 433 kts | 110° |
| 2026-05-04 22:24 | 41.33368 | -75.90354 | 22336 ft | 429 kts | 110° |
| 2026-05-04 22:24 | 41.32322 | -75.86663 | 21720 ft | 424 kts | 110° |
| 2026-05-04 22:24 | 41.31287 | -75.83018 | 21116 ft | 419 kts | 111° |
| 2026-05-04 22:25 | 41.30262 | -75.79412 | 20538 ft | 414 kts | 111° |
| 2026-05-04 22:25 | 41.29246 | -75.75842 | 19951 ft | 410 kts | 111° |
| 2026-05-04 22:25 | 41.28241 | -75.72313 | 19370 ft | 407 kts | 111° |
| 2026-05-04 22:25 | 41.27243 | -75.68826 | 19000 ft | 400 kts | 112° |
| 2026-05-04 22:26 | 41.26177 | -75.65406 | 18892 ft | 399 kts | 114° |
| 2026-05-04 22:26 | 41.25048 | -75.62025 | 18853 ft | 400 kts | 115° |
| 2026-05-04 22:26 | 41.24122 | -75.59303 | 18840 ft | 399 kts | 115° |
| 2026-05-04 22:26 | 41.22993 | -75.55995 | 18838 ft | 398 kts | 115° |
| 2026-05-04 22:27 | 41.21853 | -75.52640 | 18884 ft | 399 kts | 115° |
| 2026-05-04 22:27 | 41.20728 | -75.49314 | 18763 ft | 392 kts | 115° |
| 2026-05-04 22:27 | 41.19619 | -75.46019 | 18364 ft | 388 kts | 115° |
| 2026-05-04 22:27 | 41.18513 | -75.42728 | 17370 ft | 396 kts | 115° |
| 2026-05-04 22:28 | 41.17377 | -75.39351 | 16251 ft | 405 kts | 115° |
| 2026-05-04 22:28 | 41.16221 | -75.35918 | 15195 ft | 411 kts | 115° |
| 2026-05-04 22:28 | 41.15057 | -75.32461 | 14149 ft | 406 kts | 115° |
| 2026-05-04 22:28 | 41.13916 | -75.29069 | 13055 ft | 397 kts | 115° |
| 2026-05-04 22:29 | 41.12821 | -75.25823 | 12230 ft | 384 kts | 116° |
| 2026-05-04 22:29 | 41.11760 | -75.22678 | 11593 ft | 366 kts | 116° |
| 2026-05-04 22:29 | 41.10736 | -75.19650 | 10956 ft | 352 kts | 116° |
| 2026-05-04 22:29 | 41.09769 | -75.16790 | 10763 ft | 327 kts | 116° |
| 2026-05-04 22:30 | 41.08864 | -75.14117 | 10400 ft | 311 kts | 116° |
| 2026-05-04 22:30 | 41.07984 | -75.11529 | 9775 ft | 308 kts | 116° |
| 2026-05-04 22:30 | 41.07106 | -75.08951 | 9079 ft | 306 kts | 117° |
| 2026-05-04 22:30 | 41.06236 | -75.06394 | 8441 ft | 302 kts | 117° |
| 2026-05-04 22:31 | 41.05378 | -75.03874 | 7778 ft | 299 kts | 116° |
| 2026-05-04 22:31 | 41.04526 | -75.01372 | 7148 ft | 296 kts | 117° |
| 2026-05-04 22:31 | 41.03742 | -74.99073 | 6622 ft | 292 kts | 117° |
| 2026-05-04 22:31 | 41.02941 | -74.96727 | 6150 ft | 291 kts | 117° |
| 2026-05-04 22:32 | 41.02113 | -74.94302 | 6032 ft | 288 kts | 117° |
| 2026-05-04 22:32 | 41.01292 | -74.91901 | 6008 ft | 288 kts | 117° |
| 2026-05-04 22:32 | 41.00465 | -74.89486 | 6004 ft | 288 kts | 117° |
| 2026-05-04 22:32 | 40.99677 | -74.87059 | 5992 ft | 290 kts | 109° |
| 2026-05-04 22:33 | 40.99523 | -74.84393 | 5988 ft | 293 kts | 89° |
| 2026-05-04 22:33 | 40.99655 | -74.81680 | 5860 ft | 296 kts | 87° |
| 2026-05-04 22:33 | 40.99817 | -74.78962 | 5722 ft | 295 kts | 87° |
| 2026-05-04 22:33 | 40.99972 | -74.76296 | 5593 ft | 290 kts | 87° |
| 2026-05-04 22:34 | 41.00114 | -74.73637 | 5469 ft | 290 kts | 88° |
| 2026-05-04 22:34 | 41.00244 | -74.71024 | 5341 ft | 290 kts | 88° |
| 2026-05-04 22:34 | 41.00368 | -74.68358 | 5209 ft | 290 kts | 88° |
| 2026-05-04 22:34 | 41.00486 | -74.65700 | 5097 ft | 290 kts | 89° |
| 2026-05-04 22:35 | 41.00601 | -74.63029 | 4972 ft | 291 kts | 89° |
| 2026-05-04 22:35 | 41.00713 | -74.60358 | 4836 ft | 290 kts | 89° |
| 2026-05-04 22:35 | 41.00822 | -74.57702 | 4723 ft | 290 kts | 89° |
| 2026-05-04 22:35 | 41.00930 | -74.55041 | 4587 ft | 289 kts | 89° |
| 2026-05-04 22:36 | 41.01035 | -74.52411 | 4483 ft | 286 kts | 89° |
| 2026-05-04 22:36 | 41.01138 | -74.49823 | 4330 ft | 283 kts | 89° |
| 2026-05-04 22:36 | 41.01241 | -74.47231 | 4220 ft | 282 kts | 89° |
| 2026-05-04 22:36 | 41.01341 | -74.44676 | 4090 ft | 283 kts | 89° |
| 2026-05-04 22:37 | 41.01442 | -74.42080 | 3969 ft | 286 kts | 90° |
| 2026-05-04 22:37 | 41.01543 | -74.39450 | 3805 ft | 287 kts | 89° |
| 2026-05-04 22:37 | 41.01643 | -74.36846 | 3550 ft | 281 kts | 89° |
| 2026-05-04 22:37 | 41.01742 | -74.34278 | 3353 ft | 277 kts | 89° |
| 2026-05-04 22:38 | 41.01838 | -74.31743 | 3245 ft | 278 kts | 89° |
| 2026-05-04 22:38 | 41.01934 | -74.29216 | 3103 ft | 281 kts | 89° |
| 2026-05-04 22:38 | 41.02032 | -74.26597 | 2969 ft | 279 kts | 89° |
| 2026-05-04 22:38 | 41.02128 | -74.24058 | 2860 ft | 271 kts | 90° |
| 2026-05-04 22:39 | 41.02218 | -74.21647 | 2749 ft | 259 kts | 89° |
| 2026-05-04 22:39 | 41.02304 | -74.19324 | 2633 ft | 249 kts | 89° |
| 2026-05-04 22:39 | 41.02387 | -74.17095 | 2543 ft | 237 kts | 90° |
| 2026-05-04 22:39 | 41.02466 | -74.14961 | 2479 ft | 226 kts | 90° |
| 2026-05-04 22:40 | 41.02539 | -74.12962 | 2393 ft | 211 kts | 90° |
| 2026-05-04 22:40 | 41.02608 | -74.11086 | 2291 ft | 196 kts | 90° |
| 2026-05-04 22:40 | 41.02650 | -74.09933 | 2259 ft | 184 kts | 91° |
| 2026-05-04 22:40 | 41.02710 | -74.08253 | 2252 ft | 182 kts | 91° |
| 2026-05-04 22:41 | 41.02583 | -74.06080 | 2096 ft | 174 kts | 124° |
| 2026-05-04 22:41 | 41.01752 | -74.05031 | 2063 ft | 162 kts | 162° |
| 2026-05-04 22:41 | 41.01047 | -74.04832 | 2015 ft | 154 kts | 185° |
| 2026-05-04 22:41 | 40.99638 | -74.04904 | 1923 ft | 153 kts | 187° |
| 2026-05-04 22:42 | 40.98591 | -74.04970 | 1856 ft | 153 kts | 188° |
| 2026-05-04 22:42 | 40.97521 | -74.05044 | 1806 ft | 156 kts | 187° |
| 2026-05-04 22:42 | 40.96470 | -74.05116 | 1725 ft | 145 kts | 188° |
| 2026-05-04 22:42 | 40.95481 | -74.05186 | 1687 ft | 140 kts | 187° |
| 2026-05-04 22:43 | 40.94857 | -74.05230 | 1633 ft | 133 kts | 187° |
| 2026-05-04 22:43 | 40.93993 | -74.05289 | 1592 ft | 118 kts | 189° |
| 2026-05-04 22:43 | 40.93161 | -74.05351 | 1444 ft | 122 kts | 188° |
| 2026-05-04 22:43 | 40.92325 | -74.05413 | 1333 ft | 123 kts | 188° |
| 2026-05-04 22:44 | 40.91201 | -74.05502 | 1131 ft | 122 kts | 186° |
| 2026-05-04 22:44 | 40.90360 | -74.05563 | 975 ft | 119 kts | 187° |
| 2026-05-04 22:44 | 40.89809 | -74.05603 | 873 ft | 118 kts | 186° |
| 2026-05-04 22:44 | 40.88981 | -74.05665 | 717 ft | 125 kts | 185° |
| 2026-05-04 22:45 | 40.88108 | -74.05720 | 554 ft | 123 kts | 188° |
| 2026-05-04 22:45 | 40.86358 | -74.05850 | 207 ft | 126 kts | 189° |
| 2026-05-04 22:45 | 40.85505 | -74.05918 | 37 ft | 122 kts | 189° |
| 2026-05-04 22:46 | 40.84766 | -74.05974 | 14 ft | 79 kts | 182° |
| 2026-05-04 22:46 | 40.84403 | -74.05999 | 14 ft | 20 kts | 183° |
| 2026-05-04 22:46 | 40.84304 | -74.06064 | 15 ft | 12 kts | 226° |
| 2026-05-04 22:46 | 40.84269 | -74.06115 | 14 ft | 2 kts | 240° |
| 2026-05-04 22:47 | 40.84268 | -74.06118 | 14 ft | 0 kts | 243° |
| 2026-05-04 22:47 | 40.84267 | -74.06121 | 14 ft | 1 kts | 247° |
| 2026-05-04 22:48 | 40.84273 | -74.06147 | 14 ft | 5 kts | 321° |
| 2026-05-04 22:48 | 40.84331 | -74.06151 | 14 ft | 12 kts | 2° |
| 2026-05-04 22:48 | 40.84435 | -74.06143 | 14 ft | 17 kts | 4° |
| 2026-05-04 22:48 | 40.84555 | -74.06134 | 14 ft | 17 kts | 4° |
| 2026-05-04 22:49 | 40.84653 | -74.06126 | 14 ft | 9 kts | 0° |
| 2026-05-04 22:49 | 40.84699 | -74.06173 | 14 ft | 9 kts | 306° |
| 2026-05-04 22:49 | 40.84741 | -74.06246 | 21 ft | 12 kts | 307° |
| 2026-05-04 22:49 | 40.84801 | -74.06351 | 15 ft | 15 kts | 307° |
| 2026-05-04 22:50 | 40.84864 | -74.06455 | 17 ft | 11 kts | 308° |
| 2026-05-04 22:50 | 40.84869 | -74.06534 | 16 ft | 10 kts | 229° |
| 2026-05-04 22:50 | 40.84823 | -74.06598 | 16 ft | 9 kts | 226° |
| 2026-05-04 22:50 | 40.84779 | -74.06660 | 15 ft | 9 kts | 228° |
| 2026-05-04 22:51 | 40.84736 | -74.06720 | 16 ft | 9 kts | 216° |
| 2026-05-04 22:51 | 40.84700 | -74.06709 | 15 ft | 5 kts | 137° |
| 2026-05-04 22:51 | 40.84673 | -74.06676 | 15 ft | 5 kts | 135° |
| 2026-05-04 22:51 | 40.84643 | -74.06664 | 17 ft | 4 kts | 214° |
| 2026-05-04 22:52 | 40.84637 | -74.06677 | 15 ft | 1 kts | 235° |
| 2026-05-04 22:52 | 40.84634 | -74.06681 | 15 ft | 0 kts | 228° |
| 2026-05-04 22:52 | 40.84633 | -74.06682 | 15 ft | 0 kts | 229° |